Time;durP1;ratioP1;P1;durP2;ratioP2;P2;SDS_P1;SDS_P2;PMS_P1;PMS_P2;Temp;Humidity;BMP_temperature;BMP_pressure;BME280_temperature;BME280_humidity;BME280_pressure;Samples;Min_cycle;Max_cycle;Signal;HPM_P1;HPM_P2
2023/08/17 00:00:20;;;;;;;0.25;0.25;;;16.50;99.90;;;;;;5113640;28;20364;-62
2023/08/17 00:02:46;;;;;;;;;;;16.20;99.90;;;;;;5113331;28;20056;-63
2023/08/17 00:05:12;;;;;;;0.13;0.13;;;16.40;99.90;;;;;;5113309;28;19923;-62
2023/08/17 00:07:37;;;;;;;;;;;16.30;99.90;;;;;;5113552;28;20039;-62
2023/08/17 00:10:03;;;;;;;0.10;0.10;;;16.40;99.90;;;;;;5113254;28;19924;-63
2023/08/17 00:12:29;;;;;;;0.22;0.22;;;16.00;99.90;;;;;;5112918;28;20055;-63
2023/08/17 00:14:55;;;;;;;;;;;16.30;99.90;;;;;;5113437;28;20055;-62
2023/08/17 00:17:20;;;;;;;0.30;0.30;;;16.00;99.90;;;;;;5112781;28;20023;-63
2023/08/17 00:19:46;;;;;;;;;;;15.90;99.90;;;;;;5113552;28;20051;-63
2023/08/17 00:22:12;;;;;;;0.15;0.15;;;15.80;99.90;;;;;;5113067;28;19927;-63
2023/08/17 00:24:38;;;;;;;;;;;15.90;99.90;;;;;;5112398;28;20035;-62
2023/08/17 00:27:04;;;;;;;0.10;0.10;;;15.90;99.90;;;;;;5094340;28;19927;-62
2023/08/17 00:29:30;;;;;;;0.20;0.20;;;16.20;99.90;;;;;;5113002;28;20047;-62
2023/08/17 00:31:56;;;;;;;0.45;0.45;;;15.80;99.90;;;;;;5112653;28;20147;-64
2023/08/17 00:34:21;;;;;;;0.20;0.20;;;16.00;99.90;;;;;;5094463;28;20523;-64
2023/08/17 00:36:47;;;;;;;0.95;0.95;;;15.90;99.90;;;;;;5112558;28;20051;-63
2023/08/17 00:39:14;;;;;;;;;;;15.80;99.90;;;;;;5112951;28;20043;-63
2023/08/17 00:41:40;;;;;;;0.22;0.22;;;16.50;99.90;;;;;;5112369;28;20394;-63
2023/08/17 00:44:06;;;;;;;0.20;0.20;;;16.40;99.90;;;;;;5112408;28;20104;-64
2023/08/17 00:46:32;;;;;;;0.45;0.35;;;16.00;99.90;;;;;;5112421;28;20522;-63
2023/08/17 00:48:58;;;;;;;0.60;0.60;;;15.90;99.90;;;;;;5112215;28;20141;-62
2023/08/17 00:51:24;;;;;;;0.17;0.17;;;15.80;99.90;;;;;;5112709;28;20116;-63
2023/08/17 00:53:52;;;;;;;0.10;0.10;;;15.70;99.90;;;;;;5112117;28;20051;-63
2023/08/17 00:56:18;;;;;;;0.10;0.10;;;15.80;99.90;;;;;;5112327;28;20055;-63
2023/08/17 00:58:44;;;;;;;;;;;15.80;99.90;;;;;;5112402;28;20052;-63
2023/08/17 01:01:09;;;;;;;0.98;0.47;;;15.80;99.90;;;;;;5112122;28;20355;-63
2023/08/17 01:03:35;;;;;;;;;;;15.70;99.90;;;;;;5112253;28;20063;-63
2023/08/17 01:06:02;;;;;;;0.20;0.20;;;15.70;99.90;;;;;;5112022;28;19976;-62
2023/08/17 01:08:29;;;;;;;0.10;0.10;;;16.00;99.90;;;;;;5111784;28;20071;-62
2023/08/17 01:11:01;;;;;;;0.38;0.38;;;15.80;99.90;;;;;;5093727;28;20460;-62
2023/08/17 01:13:46;;;;;;;0.22;0.22;;;15.90;99.90;;;;;;5111990;28;20048;-62
2023/08/17 01:16:15;;;;;;;0.20;0.20;;;15.70;99.90;;;;;;5112070;28;20047;-64
2023/08/17 01:18:43;;;;;;;0.17;0.17;;;16.10;99.90;;;;;;5111727;28;20044;-66
2023/08/17 01:21:12;;;;;;;0.20;0.20;;;15.90;99.90;;;;;;5111559;28;20488;-63
2023/08/17 01:23:37;;;;;;;0.10;0.10;;;15.70;99.90;;;;;;5111470;28;20147;-62
2023/08/17 01:26:03;;;;;;;0.20;0.20;;;15.80;99.90;;;;;;5111586;28;20413;-63
2023/08/17 01:28:29;;;;;;;;;;;16.10;99.90;;;;;;5112167;28;20360;-62
2023/08/17 01:31:23;;;;;;;0.32;0.32;;;16.00;99.90;;;;;;5111304;28;19943;-62
2023/08/17 01:33:54;;;;;;;0.40;0.25;;;15.60;99.90;;;;;;5111507;28;20055;-63
2023/08/17 01:36:25;;;;;;;0.10;0.10;;;15.90;99.90;;;;;;5111557;28;20044;-63
2023/08/17 01:38:56;;;;;;;0.52;0.52;;;15.60;99.90;;;;;;5111501;28;20129;-63
2023/08/17 01:41:23;;;;;;;0.10;0.10;;;15.90;99.90;;;;;;5111068;28;20077;-64
2023/08/17 01:43:50;;;;;;;0.20;0.20;;;15.80;99.90;;;;;;5111244;28;20094;-64
2023/08/17 01:46:17;;;;;;;0.10;0.10;;;15.70;99.90;;;;;;5111133;28;20510;-62
2023/08/17 01:48:46;;;;;;;0.15;0.15;;;16.00;99.90;;;;;;5111164;28;20040;-63
2023/08/17 01:51:19;;;;;;;0.20;0.20;;;15.60;99.90;;;;;;5111236;28;20055;-63
2023/08/17 01:53:44;;;;;;;0.10;0.10;;;15.80;99.90;;;;;;5092238;28;20142;-64
2023/08/17 01:56:10;;;;;;;;;;;15.70;99.90;;;;;;5093051;28;20271;-65
2023/08/17 01:58:35;;;;;;;0.25;0.25;;;15.90;99.90;;;;;;5093046;28;19923;-64
2023/08/17 02:01:01;;;;;;;;;;;15.40;99.90;;;;;;5093483;28;20051;-64
2023/08/17 02:03:28;;;;;;;0.17;0.17;;;15.40;99.90;;;;;;5110550;28;19928;-63
2023/08/17 02:05:56;;;;;;;0.30;0.30;;;15.60;99.90;;;;;;5111226;28;20055;-63
2023/08/17 02:08:22;;;;;;;0.30;0.30;;;15.60;99.90;;;;;;5111490;28;20107;-64
2023/08/17 02:10:47;;;;;;;;;;;15.60;99.90;;;;;;5093194;28;20130;-62
2023/08/17 02:13:14;;;;;;;0.50;0.50;;;15.60;99.90;;;;;;5111452;28;19927;-63
2023/08/17 02:15:40;;;;;;;0.20;0.20;;;15.20;99.90;;;;;;5110931;28;20060;-63
2023/08/17 02:18:06;;;;;;;;;;;15.90;99.90;;;;;;5111319;28;20385;-63
2023/08/17 02:20:31;;;;;;;0.20;0.20;;;15.40;99.90;;;;;;5111182;28;20613;-63
2023/08/17 02:22:57;;;;;;;;;;;15.70;99.90;;;;;;5092978;28;20040;-64
2023/08/17 02:25:23;;;;;;;0.15;0.15;;;15.30;99.90;;;;;;5110969;28;19920;-63
2023/08/17 02:27:49;;;;;;;0.10;0.10;;;15.50;99.90;;;;;;5110952;28;20138;-64
2023/08/17 02:30:14;;;;;;;;;;;15.70;99.90;;;;;;5111010;28;20126;-64
2023/08/17 02:32:40;;;;;;;0.35;0.35;;;16.00;99.90;;;;;;5110744;28;19981;-63
2023/08/17 02:35:07;;;;;;;;;;;15.60;99.90;;;;;;5111240;28;20054;-62
2023/08/17 02:37:33;;;;;;;0.20;0.20;;;15.70;99.90;;;;;;5110827;28;19963;-63
2023/08/17 02:39:58;;;;;;;;;;;16.00;99.90;;;;;;5111675;28;20106;-62
2023/08/17 02:42:24;;;;;;;0.30;0.28;;;15.70;99.90;;;;;;5110536;28;20359;-62
2023/08/17 02:44:50;;;;;;;;;;;16.20;99.90;;;;;;5111245;28;20051;-62
2023/08/17 02:47:15;;;;;;;0.20;0.20;;;16.00;99.90;;;;;;5110335;28;19930;-62
2023/08/17 02:49:41;;;;;;;;;;;15.90;99.90;;;;;;5113996;28;20472;-63
2023/08/17 02:52:06;;;;;;;0.10;0.10;;;15.60;99.90;;;;;;5114720;28;20256;-63
2023/08/17 02:54:32;;;;;;;;;;;15.40;99.90;;;;;;5115012;28;20380;-63
2023/08/17 02:56:59;;;;;;;0.15;0.15;;;15.90;99.90;;;;;;5114662;28;19924;-62
2023/08/17 02:59:24;;;;;;;0.28;0.28;;;15.60;99.90;;;;;;5096416;28;20087;-63
2023/08/17 03:01:50;;;;;;;;;;;15.80;99.90;;;;;;5114183;28;20090;-63
2023/08/17 03:04:16;;;;;;;0.60;0.60;;;15.60;99.90;;;;;;5113780;28;19976;-62
2023/08/17 03:06:41;;;;;;;;;;;15.80;99.90;;;;;;5096902;28;20051;-64
2023/08/17 03:09:07;;;;;;;0.32;0.32;;;15.50;99.90;;;;;;5114448;28;19958;-63
2023/08/17 03:11:32;;;;;;;;;;;15.80;99.90;;;;;;5114697;28;20054;-63
2023/08/17 03:14:01;;;;;;;0.85;0.50;;;15.70;99.90;;;;;;5113814;28;19928;-63
2023/08/17 03:16:27;;;;;;;0.40;0.40;;;15.60;99.90;;;;;;5114026;28;20054;-63
2023/08/17 03:18:53;;;;;;;0.20;0.20;;;15.50;99.90;;;;;;5114209;28;20043;-63
2023/08/17 03:21:19;;;;;;;;;;;15.60;99.90;;;;;;5114233;28;20062;-62
2023/08/17 03:23:45;;;;;;;0.93;0.85;;;15.70;99.90;;;;;;5113828;28;20020;-64
2023/08/17 03:26:11;;;;;;;;;;;15.50;99.90;;;;;;5114421;28;20089;-63
2023/08/17 03:28:36;;;;;;;0.10;0.10;;;15.90;99.90;;;;;;5113765;28;19920;-63
2023/08/17 03:31:02;;;;;;;;;;;15.90;99.90;;;;;;5114361;28;20048;-63
2023/08/17 03:33:29;;;;;;;0.40;0.40;;;15.70;99.90;;;;;;5113650;28;20006;-63
2023/08/17 03:35:54;;;;;;;0.52;0.43;;;15.70;99.90;;;;;;5113861;28;20039;-62
2023/08/17 03:38:20;;;;;;;;;;;15.90;99.90;;;;;;5114021;28;20070;-62
2023/08/17 03:40:47;;;;;;;0.38;0.38;;;16.20;99.90;;;;;;5113839;28;19924;-62
2023/08/17 03:43:13;;;;;;;0.10;0.10;;;16.00;99.90;;;;;;5113365;28;20109;-62
2023/08/17 03:45:41;;;;;;;0.10;0.10;;;16.00;99.90;;;;;;5113627;28;20043;-63
2023/08/17 03:48:07;;;;;;;0.20;0.20;;;15.90;99.90;;;;;;5113612;28;20051;-63
2023/08/17 03:50:33;;;;;;;;;;;16.10;99.90;;;;;;5113995;28;20409;-62
2023/08/17 03:52:58;;;;;;;0.22;0.22;;;16.10;99.90;;;;;;5113691;28;19923;-63
2023/08/17 03:55:24;;;;;;;;;;;16.00;99.90;;;;;;5113953;28;20492;-62
2023/08/17 03:57:49;;;;;;;0.10;0.10;;;16.10;99.90;;;;;;5113553;28;19966;-63
2023/08/17 04:00:15;;;;;;;;;;;15.90;99.90;;;;;;5095251;28;20043;-62
2023/08/17 04:02:41;;;;;;;0.10;0.10;;;15.60;99.90;;;;;;5113048;28;19920;-62
2023/08/17 04:05:06;;;;;;;;;;;15.90;99.90;;;;;;5113633;28;20134;-63
2023/08/17 04:07:32;;;;;;;0.15;0.15;;;15.90;99.90;;;;;;5113292;28;19972;-62
2023/08/17 04:09:58;;;;;;;;;;;15.90;99.90;;;;;;5113548;28;20078;-63
2023/08/17 04:12:23;;;;;;;0.10;0.10;;;15.80;99.90;;;;;;5113209;28;19923;-63
2023/08/17 04:14:49;;;;;;;;;;;15.60;99.90;;;;;;5113505;28;20475;-62
2023/08/17 04:17:15;;;;;;;0.47;0.45;;;15.50;99.90;;;;;;5112882;28;20056;-62
2023/08/17 04:19:40;;;;;;;;;;;16.00;99.90;;;;;;5113450;28;20047;-63
2023/08/17 04:22:06;;;;;;;0.38;0.35;;;16.00;99.90;;;;;;5112605;28;19930;-62
2023/08/17 04:24:31;;;;;;;;;;;15.60;99.90;;;;;;5112910;28;20087;-63
2023/08/17 04:26:57;;;;;;;0.30;0.30;;;15.50;99.90;;;;;;5112925;28;19920;-62
2023/08/17 04:29:22;;;;;;;;;;;15.60;99.90;;;;;;5094948;28;20054;-65
2023/08/17 04:31:48;;;;;;;0.10;0.10;;;15.50;99.90;;;;;;5112603;28;19996;-62
2023/08/17 04:34:14;;;;;;;;;;;15.30;99.90;;;;;;5113082;28;20080;-64
2023/08/17 04:36:39;;;;;;;0.10;0.10;;;15.80;99.90;;;;;;5094212;28;19927;-63
2023/08/17 04:39:05;;;;;;;;;;;15.40;99.90;;;;;;5113032;28;20055;-63
2023/08/17 04:41:31;;;;;;;0.10;0.10;;;15.50;99.90;;;;;;5112388;28;19919;-62
2023/08/17 04:43:56;;;;;;;;;;;15.60;99.90;;;;;;5112984;28;20058;-62
2023/08/17 04:46:22;;;;;;;0.30;0.30;;;15.70;99.90;;;;;;5094191;28;19928;-62
2023/08/17 04:48:47;;;;;;;;;;;15.80;99.90;;;;;;5112679;28;20054;-62
2023/08/17 04:51:14;;;;;;;0.20;0.20;;;15.50;99.90;;;;;;5112579;28;19919;-62
2023/08/17 04:53:40;;;;;;;0.32;0.32;;;15.40;99.90;;;;;;5112052;28;20047;-62
2023/08/17 04:56:05;;;;;;;;;;;15.40;99.90;;;;;;5094246;28;20050;-64
2023/08/17 04:58:31;;;;;;;0.20;0.20;;;15.50;99.90;;;;;;5111892;28;19919;-62
2023/08/17 05:00:58;;;;;;;;;;;15.40;99.90;;;;;;5112418;28;20047;-62
2023/08/17 05:03:24;;;;;;;0.20;0.20;;;15.60;99.90;;;;;;5111458;28;19920;-63
2023/08/17 05:05:51;;;;;;;;;;;15.50;99.90;;;;;;5112437;28;20070;-62
2023/08/17 05:08:17;;;;;;;0.20;0.20;;;15.50;99.90;;;;;;5111578;28;19964;-62
2023/08/17 05:10:42;;;;;;;;;;;15.80;99.90;;;;;;5112339;28;20127;-63
2023/08/17 05:13:08;;;;;;;0.38;0.38;;;15.20;99.90;;;;;;5111386;28;19919;-62
2023/08/17 05:15:33;;;;;;;;;;;15.80;99.90;;;;;;5112691;28;20051;-62
2023/08/17 05:17:59;;;;;;;0.30;0.30;;;15.80;99.90;;;;;;5111679;28;19923;-65
2023/08/17 05:20:25;;;;;;;;;;;15.80;99.90;;;;;;5093873;28;20040;-63
2023/08/17 05:22:51;;;;;;;0.25;0.25;;;16.20;99.90;;;;;;5111743;28;19926;-63
2023/08/17 05:25:16;;;;;;;;;;;15.70;99.90;;;;;;5112253;28;20054;-62
2023/08/17 05:27:42;;;;;;;2.65;0.55;;;15.80;99.90;;;;;;5111595;28;19923;-63
2023/08/17 05:30:08;;;;;;;;;;;16.00;99.90;;;;;;5112136;28;20051;-63
2023/08/17 05:32:33;;;;;;;0.13;0.13;;;16.20;99.90;;;;;;5093539;28;20367;-62
2023/08/17 05:34:59;;;;;;;;;;;16.40;99.90;;;;;;5112332;28;20059;-63
2023/08/17 05:37:24;;;;;;;0.35;0.35;;;16.60;99.90;;;;;;5111519;28;19923;-64
2023/08/17 05:39:50;;;;;;;;;;;16.20;99.90;;;;;;5112020;28;20087;-64
2023/08/17 05:42:16;;;;;;;0.52;0.45;;;16.50;99.90;;;;;;5093264;28;19920;-63
2023/08/17 05:44:41;;;;;;;;;;;16.60;99.90;;;;;;5111995;28;20135;-63
2023/08/17 05:47:07;;;;;;;0.30;0.30;;;16.50;99.90;;;;;;5111333;28;19924;-63
2023/08/17 05:49:33;;;;;;;;;;;16.30;99.90;;;;;;5111765;28;20126;-64
2023/08/17 05:51:58;;;;;;;0.20;0.20;;;16.60;99.90;;;;;;5111410;28;19920;-63
2023/08/17 05:54:24;;;;;;;;;;;16.80;99.90;;;;;;5111559;28;20083;-62
2023/08/17 05:56:49;;;;;;;0.10;0.10;;;16.60;99.90;;;;;;5111432;28;19927;-62
2023/08/17 05:59:15;;;;;;;;;;;16.70;99.90;;;;;;5111668;28;20047;-63
2023/08/17 06:01:41;;;;;;;0.17;0.17;;;16.70;99.90;;;;;;5111270;28;19955;-62
2023/08/17 06:04:07;;;;;;;;;;;16.70;99.90;;;;;;5111046;28;20487;-63
2023/08/17 06:06:33;;;;;;;0.45;0.45;;;16.90;99.90;;;;;;5111181;28;19923;-64
2023/08/17 06:08:59;;;;;;;0.63;0.63;;;17.30;99.90;;;;;;5111315;28;20083;-63
2023/08/17 06:11:24;;;;;;;;;;;17.20;99.90;;;;;;5111910;28;20135;-63
2023/08/17 06:13:50;;;;;;;0.40;0.40;;;17.20;99.90;;;;;;5111049;28;19928;-65
2023/08/17 06:16:16;;;;;;;;;;;17.20;99.90;;;;;;5111864;28;20104;-63
2023/08/17 06:18:42;;;;;;;0.30;0.30;;;17.10;99.90;;;;;;5092757;28;19919;-65
2023/08/17 06:21:07;;;;;;;;;;;17.30;99.90;;;;;;5093141;28;20044;-63
2023/08/17 06:23:33;;;;;;;0.38;0.38;;;17.30;99.90;;;;;;5111378;28;20026;-63
2023/08/17 06:25:59;;;;;;;;;;;17.30;99.90;;;;;;5114743;28;20071;-63
2023/08/17 06:28:26;;;;;;;0.20;0.20;;;17.20;99.90;;;;;;5114850;28;19923;-65
2023/08/17 06:30:53;;;;;;;0.28;0.28;;;17.60;99.90;;;;;;5114944;28;20060;-63
2023/08/17 06:33:19;;;;;;;0.73;0.30;;;17.50;99.90;;;;;;5063612;28;20035;-64
2023/08/17 06:35:45;;;;;;;0.10;0.10;;;17.60;99.90;;;;;;5115140;28;20445;-63
2023/08/17 06:38:10;;;;;;;;;;;17.10;99.90;;;;;;5115370;28;20059;-64
2023/08/17 06:40:36;;;;;;;0.52;0.52;;;17.60;99.90;;;;;;5096765;28;19923;-64
2023/08/17 06:43:01;;;;;;;;;;;17.80;99.90;;;;;;5115290;28;20043;-63
2023/08/17 06:45:27;;;;;;;0.35;0.35;;;17.50;99.90;;;;;;5114736;28;19919;-63
2023/08/17 06:47:53;;;;;;;;;;;17.70;99.90;;;;;;5115220;28;20039;-63
2023/08/17 06:50:19;;;;;;;0.20;0.20;;;17.50;99.90;;;;;;5114200;28;19981;-64
2023/08/17 06:52:44;;;;;;;0.10;0.10;;;17.60;99.90;;;;;;5114874;28;20039;-65
2023/08/17 06:55:10;;;;;;;0.15;0.15;;;17.90;99.90;;;;;;5114510;28;20048;-63
2023/08/17 06:57:36;;;;;;;0.22;0.22;;;17.80;99.90;;;;;;5114495;28;20138;-64
2023/08/17 07:00:05;;;;;;;0.20;0.20;;;18.00;99.90;;;;;;5114372;28;20039;-63
2023/08/17 07:02:31;;;;;;;0.82;0.82;;;17.60;99.90;;;;;;5114314;28;20078;-63
2023/08/17 07:04:57;;;;;;;0.10;0.10;;;18.00;99.90;;;;;;5114673;28;20101;-62
2023/08/17 07:07:22;;;;;;;0.52;0.52;;;18.00;99.90;;;;;;5114278;28;20417;-64
2023/08/17 07:09:48;;;;;;;0.40;0.25;;;18.00;99.90;;;;;;5114370;28;20043;-62
2023/08/17 07:12:14;;;;;;;0.10;0.10;;;18.20;99.90;;;;;;5114234;28;20135;-64
2023/08/17 07:14:39;;;;;;;0.35;0.35;;;18.30;99.90;;;;;;5114310;28;20039;-64
2023/08/17 07:17:05;;;;;;;;;;;18.20;99.90;;;;;;5114651;28;20097;-63
2023/08/17 07:19:30;;;;;;;0.70;0.47;;;18.60;99.90;;;;;;5096465;28;19928;-64
2023/08/17 07:21:56;;;;;;;0.10;0.10;;;18.80;99.90;;;;;;5114100;28;20108;-62
2023/08/17 07:24:22;;;;;;;0.17;0.17;;;19.00;99.90;;;;;;5114373;28;20039;-64
2023/08/17 07:26:47;;;;;;;0.20;0.20;;;18.80;99.90;;;;;;5114521;28;20533;-63
2023/08/17 07:29:13;;;;;;;0.10;0.10;;;19.40;99.90;;;;;;5114194;28;20047;-63
2023/08/17 07:31:39;;;;;;;0.10;0.10;;;19.10;99.90;;;;;;5113498;28;20484;-62
2023/08/17 07:34:08;;;;;;;0.10;0.10;;;19.10;99.90;;;;;;5113102;28;20044;-65
2023/08/17 07:36:33;;;;;;;0.15;0.13;;;19.00;99.90;;;;;;5095856;28;20151;-63
2023/08/17 07:39:00;;;;;;;0.40;0.40;;;18.70;99.90;;;;;;5113725;28;20131;-64
2023/08/17 07:41:26;;;;;;;0.70;0.50;;;18.10;99.90;;;;;;5113905;28;20055;-62
2023/08/17 07:43:52;;;;;;;0.10;0.10;;;18.40;99.90;;;;;;5113511;28;20070;-65
2023/08/17 07:46:17;;;;;;;0.10;0.10;;;18.20;99.90;;;;;;5113552;28;20455;-64
2023/08/17 07:48:43;;;;;;;0.10;0.10;;;18.10;99.90;;;;;;5113377;28;20112;-64
2023/08/17 07:51:09;;;;;;;0.43;0.43;;;18.20;99.90;;;;;;5113382;28;20036;-63
2023/08/17 07:53:34;;;;;;;1.48;1.38;;;18.30;99.90;;;;;;5113326;28;20455;-62
2023/08/17 07:56:00;;;;;;;2.65;0.28;;;18.40;99.90;;;;;;5113573;28;20131;-65
2023/08/17 07:58:26;;;;;;;0.10;0.10;;;18.50;99.90;;;;;;5095111;28;20048;-64
2023/08/17 08:00:51;;;;;;;0.43;0.20;;;18.20;99.90;;;;;;5113037;28;20043;-65
2023/08/17 08:03:18;;;;;;;0.20;0.20;;;18.20;99.90;;;;;;5094774;28;20059;-64
2023/08/17 08:05:44;;;;;;;0.15;0.13;;;18.70;99.90;;;;;;5112642;28;20050;-66
2023/08/17 08:08:09;;;;;;;0.20;0.20;;;18.70;99.90;;;;;;5113379;28;20047;-63
2023/08/17 08:10:35;;;;;;;0.13;0.13;;;18.70;99.90;;;;;;5113133;28;20051;-64
2023/08/17 08:13:01;;;;;;;0.17;0.17;;;18.80;99.90;;;;;;5112280;28;20051;-65
2023/08/17 08:15:26;;;;;;;0.17;0.17;;;18.80;99.90;;;;;;5112331;28;20048;-64
2023/08/17 08:17:52;;;;;;;0.20;0.20;;;19.00;99.90;;;;;;5094663;28;20054;-64
2023/08/17 08:20:18;;;;;;;0.10;0.10;;;18.90;99.90;;;;;;5113278;28;20048;-63
2023/08/17 08:22:43;;;;;;;0.20;0.20;;;18.60;99.90;;;;;;5112732;28;20392;-63
2023/08/17 08:25:09;;;;;;;0.20;0.20;;;18.80;99.90;;;;;;5112460;28;20044;-63
2023/08/17 08:27:35;;;;;;;0.10;0.10;;;18.60;99.90;;;;;;5112932;28;20089;-65
2023/08/17 08:30:00;;;;;;;0.20;0.10;;;18.50;99.90;;;;;;5112865;28;20407;-63
2023/08/17 08:32:26;;;;;;;0.38;0.38;;;18.20;99.90;;;;;;5077807;28;20055;-63
2023/08/17 08:34:52;;;;;;;0.13;0.13;;;18.90;99.90;;;;;;5094349;28;20087;-64
2023/08/17 08:37:17;;;;;;;0.47;0.32;;;18.40;99.90;;;;;;5112695;28;20052;-62
2023/08/17 08:39:54;;;;;;;0.17;0.17;;;18.90;99.90;;;;;;5094512;28;20047;-64
2023/08/17 08:42:20;;;;;;;;;;;18.70;99.90;;;;;;5113056;28;20449;-64
2023/08/17 08:44:46;;;;;;;0.10;0.10;;;18.70;99.90;;;;;;5112400;28;19926;-63
2023/08/17 08:47:13;;;;;;;0.10;0.10;;;19.00;99.90;;;;;;5111564;28;20116;-64
2023/08/17 08:50:08;;;;;;;0.32;0.32;;;19.30;99.90;;;;;;5112298;28;20048;-65
2023/08/17 08:52:36;;;;;;;0.20;0.20;;;19.70;99.90;;;;;;5112427;28;20089;-64
2023/08/17 08:55:07;;;;;;;0.00;0.00;;;19.10;99.90;;;;;;5112170;28;20079;-63
2023/08/17 08:57:34;;;;;;;3.25;1.42;;;19.40;99.90;;;;;;5111859;28;20043;-64
2023/08/17 08:59:59;;;;;;;0.32;0.32;;;19.60;99.90;;;;;;5112379;28;20388;-65
2023/08/17 09:02:25;;;;;;;0.10;0.10;;;19.70;99.90;;;;;;5112088;28;20047;-63
2023/08/17 09:04:51;;;;;;;0.20;0.20;;;20.00;99.90;;;;;;5111286;28;20404;-66
2023/08/17 09:07:18;;;;;;;0.10;0.10;;;20.40;99.90;;;;;;5111932;28;20043;-63
2023/08/17 09:09:45;;;;;;;13.95;0.40;;;20.10;99.90;;;;;;5111946;28;20044;-64
2023/08/17 09:12:11;;;;;;;0.70;0.35;;;19.60;99.90;;;;;;5111768;28;20048;-63
2023/08/17 09:14:37;;;;;;;0.20;0.20;;;19.70;99.90;;;;;;5111550;28;20062;-63
2023/08/17 09:17:04;;;;;;;0.40;0.40;;;19.60;99.90;;;;;;5111863;28;20052;-63
2023/08/17 09:19:32;;;;;;;0.47;0.43;;;20.00;99.90;;;;;;5111936;28;20051;-66
2023/08/17 09:21:58;;;;;;;0.15;0.15;;;20.20;99.90;;;;;;5111771;28;20050;-64
2023/08/17 09:24:33;;;;;;;1.98;1.20;;;20.10;99.90;;;;;;5111030;28;20576;-63
2023/08/17 09:27:00;;;;;;;0.57;0.13;;;19.70;99.90;;;;;;5111679;28;20131;-65
2023/08/17 09:29:25;;;;;;;0.08;0.08;;;19.60;99.90;;;;;;5093780;28;20063;-65
2023/08/17 09:31:51;;;;;;;1.23;0.30;;;19.20;99.90;;;;;;5110654;28;20051;-64
2023/08/17 09:34:19;;;;;;;0.10;0.10;;;19.10;99.90;;;;;;5111424;28;20143;-64
2023/08/17 09:36:47;;;;;;;0.00;0.00;;;19.00;99.90;;;;;;5111750;28;20039;-62
2023/08/17 09:39:15;;;;;;;0.10;0.10;;;19.90;99.90;;;;;;5111016;28;20070;-63
2023/08/17 09:41:41;;;;;;;0.05;0.05;;;19.20;99.90;;;;;;5111361;28;20043;-64
2023/08/17 09:44:07;;;;;;;0.43;0.43;;;19.70;99.90;;;;;;5111255;28;20498;-65
2023/08/17 09:46:33;;;;;;;0.10;0.10;;;19.60;99.90;;;;;;5092805;28;20060;-63
2023/08/17 09:48:59;;;;;;;0.10;0.10;;;19.80;99.90;;;;;;5111088;28;20112;-63
2023/08/17 09:51:25;;;;;;;0.10;0.10;;;19.80;99.90;;;;;;5111266;28;20036;-63
2023/08/17 09:53:53;;;;;;;4.70;0.30;;;19.80;99.90;;;;;;5110921;28;20433;-63
2023/08/17 09:56:23;;;;;;;0.68;0.60;;;19.60;99.90;;;;;;5111178;28;20050;-65
2023/08/17 09:58:49;;;;;;;0.22;0.22;;;20.30;99.90;;;;;;5110906;28;20130;-63
2023/08/17 10:01:15;;;;;;;0.10;0.10;;;20.00;99.90;;;;;;5110310;28;20051;-64
2023/08/17 10:03:49;;;;;;;0.17;0.17;;;20.00;99.90;;;;;;5110775;28;20065;-64
2023/08/17 10:06:24;;;;;;;0.10;0.10;;;20.00;99.90;;;;;;5111272;28;20044;-64
2023/08/17 10:08:54;;;;;;;0.15;0.15;;;20.00;99.90;;;;;;5111010;28;20130;-64
2023/08/17 10:11:22;;;;;;;1.85;1.73;;;19.80;99.90;;;;;;5111334;28;20055;-64
2023/08/17 10:13:57;;;;;;;0.35;0.28;;;20.50;99.90;;;;;;5110916;28;20670;-65
2023/08/17 10:16:24;;;;;;;0.47;0.47;;;20.30;99.90;;;;;;5110952;28;20086;-65
2023/08/17 10:19:05;;;;;;;0.10;0.10;;;20.30;99.90;;;;;;5111201;28;20048;-62
2023/08/17 10:21:56;;;;;;;0.00;0.00;;;20.40;99.90;;;;;;5111256;28;20130;-63
2023/08/17 10:24:22;;;;;;;0.20;0.15;;;19.90;99.90;;;;;;5110726;28;20044;-65
2023/08/17 10:26:49;;;;;;;0.30;0.30;;;20.50;99.90;;;;;;5110860;28;20090;-63
2023/08/17 10:29:16;;;;;;;0.15;0.15;;;20.60;99.90;;;;;;5110769;28;20039;-63
2023/08/17 10:31:46;;;;;;;0.55;0.25;;;20.70;99.90;;;;;;5110656;28;20127;-62
2023/08/17 10:34:12;;;;;;;0.25;0.25;;;20.60;99.90;;;;;;5110753;28;20135;-64
2023/08/17 10:36:39;;;;;;;0.32;0.20;;;20.20;99.90;;;;;;5111412;28;20135;-66
2023/08/17 10:39:31;;;;;;;0.10;0.10;;;20.60;99.90;;;;;;5111034;28;20058;-63
2023/08/17 10:41:58;;;;;;;0.20;0.20;;;20.70;99.90;;;;;;5105881;28;20105;-64
2023/08/17 10:44:44;;;;;;;0.43;0.43;;;20.80;99.90;;;;;;5092688;28;20040;-66
2023/08/17 10:47:36;;;;;;;0.20;0.20;;;20.60;99.90;;;;;;5111107;28;20054;-65
2023/08/17 10:50:19;;;;;;;0.30;0.30;;;20.50;99.90;;;;;;5106135;28;20059;-63
2023/08/17 10:52:48;;;;;;;0.05;0.05;;;20.70;99.90;;;;;;5110962;28;20050;-64
2023/08/17 10:55:14;;;;;;;0.10;0.10;;;20.60;99.90;;;;;;5110124;28;20059;-66
2023/08/17 10:57:41;;;;;;;0.65;0.60;;;20.40;99.90;;;;;;5110751;28;20052;-65
2023/08/17 11:00:26;;;;;;;0.00;0.00;;;20.20;99.90;;;;;;5110897;28;20452;-64
2023/08/17 11:03:00;;;;;;;0.20;0.20;;;20.40;99.90;;;;;;5110360;28;20043;-64
2023/08/17 11:05:58;;;;;;;0.15;0.15;;;20.70;99.90;;;;;;5110713;28;20043;-66
2023/08/17 11:08:33;;;;;;;1.00;0.63;;;20.90;99.90;;;;;;5110426;28;20788;-66
2023/08/17 11:11:14;;;;;;;0.20;0.20;;;21.20;99.90;;;;;;5113005;28;20062;-65
2023/08/17 11:13:44;;;;;;;0.45;0.30;;;21.40;99.90;;;;;;5114058;28;20089;-63
2023/08/17 11:16:12;;;;;;;0.17;0.17;;;21.30;99.90;;;;;;5096047;28;20055;-64
2023/08/17 11:18:38;;;;;;;2.97;1.58;;;21.40;99.90;;;;;;5113861;28;20368;-65
2023/08/17 11:21:05;;;;;;;0.13;0.13;;;21.30;99.90;;;;;;5113955;28;20047;-63
2023/08/17 11:23:32;;;;;;;0.00;0.00;;;21.10;99.90;;;;;;5113992;28;20044;-64
2023/08/17 11:25:58;;;;;;;0.20;0.20;;;21.00;99.90;;;;;;5114191;28;20070;-67
2023/08/17 11:28:24;;;;;;;0.28;0.20;;;20.60;99.90;;;;;;5113887;28;20745;-63
2023/08/17 11:31:00;;;;;;;0.10;0.10;;;20.80;99.90;;;;;;5113433;28;20666;-64
2023/08/17 11:33:26;;;;;;;;;;;20.00;99.90;;;;;;5113834;28;20485;-64
2023/08/17 11:35:58;;;;;;;0.10;0.10;;;20.40;99.90;;;;;;5113702;28;19981;-64
2023/08/17 11:38:24;;;;;;;0.10;0.10;;;20.10;99.90;;;;;;5113956;28;20066;-65
2023/08/17 11:40:50;;;;;;;0.25;0.25;;;20.00;99.90;;;;;;5113683;28;20079;-66
2023/08/17 11:43:16;;;;;;;0.10;0.10;;;20.40;99.90;;;;;;5113817;28;20087;-65
2023/08/17 11:45:42;;;;;;;0.13;0.13;;;20.80;99.90;;;;;;5113511;28;20055;-64
2023/08/17 11:48:09;;;;;;;0.10;0.10;;;20.60;99.90;;;;;;5113756;28;20047;-64
2023/08/17 11:50:35;;;;;;;1.27;0.65;;;20.80;99.90;;;;;;5113152;28;20055;-65
2023/08/17 11:53:01;;;;;;;0.20;0.13;;;18.80;99.90;;;;;;5113274;28;20048;-66
2023/08/17 11:55:27;;;;;;;0.10;0.10;;;20.90;99.90;;;;;;5113365;28;20058;-64
2023/08/17 11:57:53;;;;;;;0.38;0.38;;;20.70;99.90;;;;;;5113540;28;20495;-65
2023/08/17 12:00:21;;;;;;;0.30;0.30;;;20.90;99.90;;;;;;5113065;28;20502;-63
2023/08/17 12:02:52;;;;;;;0.40;0.40;;;20.60;99.90;;;;;;5113053;28;20093;-66
2023/08/17 12:05:27;;;;;;;0.10;0.10;;;20.70;99.90;;;;;;5113444;28;20140;-63
2023/08/17 12:07:53;;;;;;;0.03;0.03;;;20.50;99.90;;;;;;5095332;28;20079;-63
2023/08/17 12:10:19;;;;;;;0.00;0.00;;;20.20;99.90;;;;;;5113109;28;20480;-66
2023/08/17 12:12:47;;;;;;;0.10;0.10;;;20.90;99.90;;;;;;5112730;28;20051;-63
2023/08/17 12:15:14;;;;;;;0.10;0.10;;;20.70;99.90;;;;;;5112983;28;20509;-64
2023/08/17 12:17:47;;;;;;;0.77;0.77;;;20.70;99.90;;;;;;5113007;28;20047;-65
2023/08/17 12:20:20;;;;;;;0.20;0.20;;;20.90;99.90;;;;;;5112811;28;20039;-63
2023/08/17 12:22:48;;;;;;;0.10;0.10;;;20.70;99.90;;;;;;5112327;28;20571;-65
2023/08/17 12:25:15;;;;;;;0.20;0.10;;;21.10;99.90;;;;;;5111932;28;20054;-64
2023/08/17 12:27:41;;;;;;;0.05;0.05;;;20.70;99.90;;;;;;5112666;28;20396;-65
2023/08/17 12:30:23;;;;;;;0.80;0.20;;;20.90;99.90;;;;;;5113505;28;20049;-65
2023/08/17 12:32:49;;;;;;;0.17;0.17;;;21.20;99.90;;;;;;5112782;28;20050;-67
2023/08/17 12:35:15;;;;;;;0.10;0.10;;;21.20;99.90;;;;;;5112998;28;20051;-65
2023/08/17 12:37:40;;;;;;;0.20;0.20;;;21.10;99.90;;;;;;5112557;28;20052;-67
2023/08/17 12:40:07;;;;;;;0.55;0.55;;;20.90;99.90;;;;;;5094575;28;20043;-66
2023/08/17 12:42:33;;;;;;;0.55;0.40;;;20.40;99.90;;;;;;5112417;28;20040;-66
2023/08/17 12:44:59;;;;;;;0.05;0.05;;;20.40;99.90;;;;;;5112556;28;20388;-65
2023/08/17 12:47:25;;;;;;;0.20;0.20;;;20.20;99.90;;;;;;5112328;28;20131;-63
2023/08/17 12:49:50;;;;;;;0.35;0.35;;;20.40;99.90;;;;;;5112222;28;20052;-64
2023/08/17 12:52:16;;;;;;;0.52;0.20;;;20.60;99.90;;;;;;5111493;28;20578;-63
2023/08/17 12:54:42;;;;;;;0.10;0.10;;;20.40;99.90;;;;;;5111881;28;20040;-68
2023/08/17 12:57:07;;;;;;;0.20;0.20;;;20.70;99.90;;;;;;5111924;28;20552;-64
2023/08/17 12:59:34;;;;;;;1.48;0.75;;;20.80;99.90;;;;;;5112159;28;20051;-63
2023/08/17 13:01:59;;;;;;;0.22;0.22;;;20.80;99.90;;;;;;5111911;28;20058;-65